Time;durP1;ratioP1;P1;durP2;ratioP2;P2;SDS_P1;SDS_P2;PMS_P1;PMS_P2;Temp;Humidity;BMP_temperature;BMP_pressure;BME280_temperature;BME280_humidity;BME280_pressure;Samples;Min_cycle;Max_cycle;Signal;HPM_P1;HPM_P2
2023/07/03 00:01:41;;;;;;;12.20;6.05;;;26.00;40.30;;;;;;6253716;28;20465;-72
2023/07/03 00:04:45;;;;;;;11.00;5.03;;;26.00;40.30;;;;;;6259649;28;20025;-72
2023/07/03 00:07:46;;;;;;;11.80;5.30;;;25.90;40.20;;;;;;6262201;28;20052;-73
2023/07/03 00:10:47;;;;;;;12.05;5.13;;;26.00;40.10;;;;;;6258393;28;20045;-73
2023/07/03 00:13:48;;;;;;;10.13;4.85;;;26.00;40.00;;;;;;6241736;28;20064;-72
2023/07/03 00:16:49;;;;;;;13.30;4.78;;;26.00;40.00;;;;;;6242073;28;20041;-73
2023/07/03 00:19:50;;;;;;;14.20;5.53;;;26.00;39.80;;;;;;6244821;28;20137;-73
2023/07/03 00:22:52;;;;;;;11.23;4.95;;;26.00;39.80;;;;;;6247262;28;20033;-72
2023/07/03 00:25:53;;;;;;;8.52;5.20;;;26.00;39.70;;;;;;6241261;28;20075;-73
2023/07/03 00:28:54;;;;;;;14.20;4.72;;;26.00;39.50;;;;;;6241423;28;20025;-72
2023/07/03 00:31:55;;;;;;;9.88;4.90;;;26.00;39.40;;;;;;6257961;28;20044;-73
2023/07/03 00:34:56;;;;;;;10.18;4.43;;;26.00;39.30;;;;;;6241612;28;20056;-72
2023/07/03 00:37:56;;;;;;;10.95;5.63;;;26.00;39.20;;;;;;6244782;28;20064;-71
2023/07/03 00:40:57;;;;;;;10.82;4.93;;;26.00;39.10;;;;;;6258135;28;20053;-72
2023/07/03 00:43:58;;;;;;;11.10;4.68;;;26.00;39.10;;;;;;6241247;28;20056;-71
2023/07/03 00:46:59;;;;;;;9.93;5.03;;;26.00;39.00;;;;;;6243086;28;20018;-71
2023/07/03 00:50:00;;;;;;;9.05;4.35;;;26.00;39.60;;;;;;6243110;28;20036;-72
2023/07/03 00:53:04;;;;;;;10.70;4.53;;;26.00;38.90;;;;;;6242229;28;20374;-73
2023/07/03 00:56:05;;;;;;;8.93;4.65;;;26.00;38.90;;;;;;6241192;28;20521;-74
2023/07/03 00:59:06;;;;;;;11.00;4.28;;;26.00;38.90;;;;;;6242667;28;20117;-72
2023/07/03 01:02:34;;;;;;;11.35;4.78;;;25.90;38.90;;;;;;6242202;28;20494;-73
2023/07/03 01:05:42;;;;;;;10.95;4.82;;;25.90;38.90;;;;;;6241030;28;20029;-72
2023/07/03 01:08:54;;;;;;;10.05;4.72;;;26.00;39.00;;;;;;6224369;28;20055;-73
2023/07/03 01:11:57;;;;;;;11.50;5.25;;;25.90;39.00;;;;;;6242299;28;20037;-73
2023/07/03 01:15:04;;;;;;;10.73;4.90;;;25.80;39.00;;;;;;6240085;28;20673;-73
2023/07/03 01:18:06;;;;;;;15.13;4.60;;;25.90;39.00;;;;;;6241152;28;20044;-73
2023/07/03 01:21:22;;;;;;;10.15;4.80;;;25.80;39.00;;;;;;6240099;28;20056;-73
2023/07/03 01:24:30;;;;;;;10.52;4.70;;;25.80;39.00;;;;;;6257315;28;20478;-73
2023/07/03 01:27:37;;;;;;;10.75;4.57;;;25.80;39.00;;;;;;6240364;28;20029;-72
2023/07/03 01:30:41;;;;;;;10.97;4.53;;;25.80;39.10;;;;;;6240085;28;20044;-73
2023/07/03 01:33:44;;;;;;;9.20;4.47;;;25.80;39.00;;;;;;6239621;28;20327;-73
2023/07/03 01:36:46;;;;;;;10.77;4.82;;;25.80;39.10;;;;;;6261166;28;20021;-73
2023/07/03 01:39:49;;;;;;;16.20;4.88;;;25.80;39.70;;;;;;6250710;28;20192;-72
2023/07/03 01:42:52;;;;;;;9.73;5.22;;;25.70;39.10;;;;;;6240166;28;20055;-72
2023/07/03 01:45:53;;;;;;;8.40;4.68;;;25.70;39.10;;;;;;6240154;28;20029;-73
2023/07/03 01:48:54;;;;;;;10.27;4.85;;;25.70;39.10;;;;;;6241603;28;20033;-73
2023/07/03 01:52:21;;;;;;;12.77;5.28;;;25.80;39.20;;;;;;6241666;28;20045;-72
2023/07/03 01:55:44;;;;;;;9.98;4.78;;;25.70;39.10;;;;;;6148894;28;20057;-74
2023/07/03 01:58:51;;;;;;;11.60;5.25;;;25.80;39.10;;;;;;6148790;28;20077;-73
2023/07/03 02:02:16;;;;;;;11.73;4.78;;;25.80;39.00;;;;;;6148314;28;20554;-72
2023/07/03 02:05:29;;;;;;;14.63;5.05;;;25.80;39.00;;;;;;6148575;28;20038;-73
2023/07/03 02:08:31;;;;;;;15.35;4.97;;;25.80;39.00;;;;;;6164671;28;20288;-72
2023/07/03 02:11:33;;;;;;;10.93;5.35;;;25.80;38.90;;;;;;6148054;28;20547;-71
2023/07/03 02:14:34;;;;;;;12.27;4.60;;;25.80;38.80;;;;;;6148610;28;20043;-73
2023/07/03 02:17:36;;;;;;;13.40;5.05;;;25.80;38.80;;;;;;6148387;28;20118;-74
2023/07/03 02:20:38;;;;;;;12.20;4.88;;;25.80;38.90;;;;;;6148315;28;20031;-72
2023/07/03 02:23:40;;;;;;;11.23;4.55;;;25.80;38.90;;;;;;6148005;28;20472;-72
2023/07/03 02:26:42;;;;;;;8.68;4.28;;;25.80;38.90;;;;;;6146913;28;20050;-73
2023/07/03 02:29:43;;;;;;;9.90;5.35;;;25.80;39.00;;;;;;6148255;28;20030;-73
2023/07/03 02:32:43;;;;;;;9.73;4.95;;;25.80;39.00;;;;;;6210957;28;20474;-73
2023/07/03 02:35:44;;;;;;;13.30;5.15;;;25.70;39.00;;;;;;6230669;28;20045;-74
2023/07/03 02:38:46;;;;;;;12.05;4.72;;;25.80;39.10;;;;;;6251796;28;20798;-72
2023/07/03 02:41:46;;;;;;;10.02;5.35;;;25.70;39.20;;;;;;6239870;28;20127;-73
2023/07/03 02:44:47;;;;;;;11.55;5.30;;;25.70;39.30;;;;;;6238328;28;20066;-74
2023/07/03 02:47:48;;;;;;;14.05;5.18;;;25.60;39.40;;;;;;6238587;28;20033;-74
2023/07/03 02:50:52;;;;;;;9.40;4.88;;;25.60;39.40;;;;;;6238461;28;20453;-73
2023/07/03 02:53:54;;;;;;;10.30;4.25;;;25.60;39.60;;;;;;6238102;28;20040;-73
2023/07/03 02:56:55;;;;;;;10.25;4.47;;;25.50;40.40;;;;;;6237989;28;20117;-73
2023/07/03 02:59:57;;;;;;;10.27;4.45;;;25.40;39.90;;;;;;6238061;28;20043;-73
2023/07/03 03:02:58;;;;;;;12.05;5.30;;;25.30;40.00;;;;;;6238027;28;20059;-73
2023/07/03 03:05:58;;;;;;;8.80;4.43;;;25.30;40.00;;;;;;6238190;28;20025;-73
2023/07/03 03:09:00;;;;;;;11.20;4.93;;;25.30;40.20;;;;;;6238483;28;20121;-73
2023/07/03 03:12:04;;;;;;;11.23;4.57;;;25.30;40.40;;;;;;6238517;28;20064;-72
2023/07/03 03:15:06;;;;;;;10.88;4.82;;;25.30;40.40;;;;;;6238466;28;20083;-73
2023/07/03 03:18:07;;;;;;;10.00;4.53;;;25.30;40.40;;;;;;6238600;28;20041;-71
2023/07/03 03:21:08;;;;;;;10.60;4.10;;;25.30;40.30;;;;;;6255120;28;20030;-74
2023/07/03 03:24:09;;;;;;;12.48;4.65;;;25.30;40.30;;;;;;6255290;28;20026;-73
2023/07/03 03:27:10;;;;;;;11.75;4.80;;;25.30;40.30;;;;;;6241018;28;20088;-72
2023/07/03 03:30:11;;;;;;;12.55;5.32;;;25.30;40.30;;;;;;6242921;28;20049;-72
2023/07/03 03:33:14;;;;;;;12.88;4.70;;;25.30;40.40;;;;;;6254359;28;20059;-73
2023/07/03 03:36:15;;;;;;;12.18;5.15;;;25.30;40.30;;;;;;6237957;28;20033;-73
2023/07/03 03:39:17;;;;;;;11.63;5.53;;;25.40;40.30;;;;;;6259389;28;20041;-73
2023/07/03 03:42:18;;;;;;;12.02;4.82;;;25.40;40.20;;;;;;6242506;28;20061;-74
2023/07/03 03:45:19;;;;;;;12.63;4.78;;;25.50;40.10;;;;;;6243221;28;20039;-74
2023/07/03 03:48:20;;;;;;;13.02;4.93;;;25.50;40.00;;;;;;6243260;28;20080;-73
2023/07/03 03:51:22;;;;;;;15.32;5.85;;;25.50;40.00;;;;;;6259290;28;20033;-74
2023/07/03 03:54:26;;;;;;;10.63;5.03;;;25.50;40.00;;;;;;6242398;28;20520;-75
2023/07/03 03:57:27;;;;;;;13.30;4.97;;;25.50;40.10;;;;;;6242481;28;20065;-73
2023/07/03 04:00:29;;;;;;;13.82;4.70;;;25.50;40.20;;;;;;6243959;28;20124;-72
2023/07/03 04:03:30;;;;;;;14.48;5.43;;;25.50;40.20;;;;;;6242359;28;20056;-72
2023/07/03 04:06:31;;;;;;;12.27;5.22;;;25.50;40.30;;;;;;6242440;28;20366;-72
2023/07/03 04:09:32;;;;;;;9.82;4.72;;;25.50;40.30;;;;;;6242291;28;20037;-72
2023/07/03 04:12:33;;;;;;;11.35;3.97;;;25.50;40.20;;;;;;6241897;28;20041;-72
2023/07/03 04:15:35;;;;;;;9.45;4.75;;;25.50;40.00;;;;;;6242337;28;20041;-73
2023/07/03 04:18:37;;;;;;;15.27;5.38;;;25.40;40.10;;;;;;6243795;28;20029;-75
2023/07/03 04:21:39;;;;;;;10.45;4.90;;;25.30;40.20;;;;;;6258342;28;20581;-74
2023/07/03 04:24:40;;;;;;;12.35;5.38;;;25.20;40.30;;;;;;6241952;28;20025;-74
2023/07/03 04:27:41;;;;;;;8.60;4.75;;;25.20;40.50;;;;;;6258621;28;20162;-74
2023/07/03 04:30:41;;;;;;;12.10;4.45;;;25.10;40.50;;;;;;6243503;28;20060;-72
2023/07/03 04:33:45;;;;;;;12.65;4.43;;;25.20;40.50;;;;;;6241134;28;20091;-73
2023/07/03 04:36:47;;;;;;;10.65;4.28;;;25.10;40.50;;;;;;6245738;28;20029;-73
2023/07/03 04:39:48;;;;;;;6.50;4.00;;;25.20;40.70;;;;;;6258672;28;20392;-74
2023/07/03 04:42:49;;;;;;;12.35;4.93;;;25.20;40.90;;;;;;6242764;28;20033;-71
2023/07/03 04:45:52;;;;;;;13.68;5.13;;;25.30;41.10;;;;;;6243182;28;20493;-72
2023/07/03 04:48:59;;;;;;;10.10;4.57;;;25.30;41.00;;;;;;6257133;28;20111;-72
2023/07/03 04:52:01;;;;;;;9.77;4.68;;;25.30;41.10;;;;;;6257908;28;20053;-71
2023/07/03 04:55:02;;;;;;;11.45;4.72;;;25.30;41.10;;;;;;6241425;28;20033;-72
2023/07/03 04:58:04;;;;;;;11.60;4.75;;;25.30;40.80;;;;;;6243052;28;20037;-73
2023/07/03 05:01:05;;;;;;;12.95;5.13;;;25.30;41.10;;;;;;6243124;28;20378;-74
2023/07/03 05:04:06;;;;;;;10.10;4.78;;;25.20;41.80;;;;;;6247093;28;20033;-74
2023/07/03 05:07:07;;;;;;;10.38;4.60;;;25.20;42.20;;;;;;6243278;28;20176;-71
2023/07/03 05:10:09;;;;;;;11.88;4.72;;;25.10;42.80;;;;;;6241991;28;20466;-75
2023/07/03 05:13:10;;;;;;;11.52;4.50;;;25.20;42.80;;;;;;6258054;28;20041;-72
2023/07/03 05:16:11;;;;;;;12.10;4.80;;;25.20;42.60;;;;;;6241478;28;20047;-74
2023/07/03 05:19:13;;;;;;;13.65;4.07;;;25.10;42.50;;;;;;6240849;28;20121;-72
2023/07/03 05:22:14;;;;;;;12.35;4.25;;;25.20;42.70;;;;;;6257206;28;20034;-72
2023/07/03 05:25:16;;;;;;;10.40;3.85;;;25.20;42.80;;;;;;6241451;28;20440;-73
2023/07/03 05:28:17;;;;;;;9.20;3.97;;;25.30;43.20;;;;;;6256678;28;20033;-72
2023/07/03 05:31:22;;;;;;;10.38;4.40;;;25.30;43.20;;;;;;6241574;28;20171;-73
2023/07/03 05:34:22;;;;;;;10.48;4.45;;;25.30;43.10;;;;;;6239808;28;20029;-71
2023/07/03 05:37:23;;;;;;;10.30;4.30;;;25.40;43.30;;;;;;6251708;28;20043;-72
2023/07/03 05:40:25;;;;;;;13.05;4.88;;;25.50;43.50;;;;;;6246033;28;20116;-74
2023/07/03 05:43:29;;;;;;;10.13;4.40;;;25.50;43.50;;;;;;6241710;28;20577;-73
2023/07/03 05:46:29;;;;;;;10.65;4.80;;;25.50;43.40;;;;;;6241989;28;20037;-72
2023/07/03 05:49:30;;;;;;;14.18;5.55;;;25.50;43.50;;;;;;6240462;28;20395;-73
2023/07/03 05:52:33;;;;;;;9.00;4.55;;;25.50;43.80;;;;;;6241083;28;20714;-72
2023/07/03 05:55:34;;;;;;;12.75;5.20;;;25.60;43.80;;;;;;6256835;28;20085;-73
2023/07/03 05:58:35;;;;;;;12.50;5.00;;;25.60;43.70;;;;;;6256585;28;20485;-72
2023/07/03 06:01:36;;;;;;;11.73;4.75;;;25.60;43.50;;;;;;6256112;28;20041;-73
2023/07/03 06:04:37;;;;;;;11.77;4.80;;;25.50;43.30;;;;;;6241110;28;20025;-72
2023/07/03 06:07:39;;;;;;;7.72;4.60;;;25.60;43.60;;;;;;6256318;28;20033;-73
2023/07/03 06:10:41;;;;;;;15.63;5.43;;;25.60;43.60;;;;;;6256532;28;20175;-72
2023/07/03 06:13:42;;;;;;;12.13;5.50;;;25.70;43.10;;;;;;6239554;28;20115;-74
2023/07/03 06:16:46;;;;;;;12.23;5.10;;;25.70;42.50;;;;;;6240954;28;20071;-72
2023/07/03 06:19:47;;;;;;;9.18;4.57;;;25.70;42.40;;;;;;6240688;28;20061;-72
2023/07/03 06:22:48;;;;;;;12.65;4.40;;;25.80;42.10;;;;;;6255481;28;20045;-73
2023/07/03 06:25:50;;;;;;;10.95;5.00;;;25.80;41.90;;;;;;6255544;28;20037;-72
2023/07/03 06:28:51;;;;;;;9.73;4.57;;;25.90;41.70;;;;;;6240423;28;20041;-73
2023/07/03 06:31:52;;;;;;;16.95;5.13;;;25.90;41.60;;;;;;6255819;28;20079;-70
2023/07/03 06:34:53;;;;;;;11.38;4.63;;;26.00;41.60;;;;;;6238892;28;20655;-72
2023/07/03 06:37:55;;;;;;;11.77;4.78;;;26.20;41.60;;;;;;6256726;28;20065;-72
2023/07/03 06:40:58;;;;;;;10.63;5.22;;;26.10;41.40;;;;;;6241763;28;20726;-73
2023/07/03 06:43:58;;;;;;;14.23;5.60;;;26.20;41.40;;;;;;6241077;28;20353;-72
2023/07/03 06:47:00;;;;;;;10.70;5.15;;;26.20;41.30;;;;;;6257018;28;20033;-74
2023/07/03 06:50:01;;;;;;;10.30;5.30;;;26.20;41.30;;;;;;6241727;28;20033;-74
2023/07/03 06:53:02;;;;;;;13.70;5.25;;;26.30;41.30;;;;;;6239644;28;20037;-73
2023/07/03 06:56:04;;;;;;;12.65;4.75;;;26.30;41.30;;;;;;6241892;28;20033;-72
2023/07/03 06:59:06;;;;;;;14.23;5.65;;;26.30;41.30;;;;;;6241549;28;20063;-74
2023/07/03 07:02:07;;;;;;;13.38;5.68;;;26.40;41.30;;;;;;6239563;28;20040;-71
2023/07/03 07:05:08;;;;;;;13.07;5.35;;;26.50;41.20;;;;;;6256346;28;20052;-72
2023/07/03 07:08:16;;;;;;;12.05;5.32;;;26.80;40.70;;;;;;6255630;28;20131;-73
2023/07/03 07:11:20;;;;;;;11.60;4.97;;;27.00;40.30;;;;;;6240609;28;20075;-73
2023/07/03 07:14:21;;;;;;;13.13;4.80;;;27.00;40.30;;;;;;6261652;28;20801;-74
2023/07/03 07:17:22;;;;;;;12.27;5.30;;;27.00;40.40;;;;;;6244941;28;20033;-72
2023/07/03 07:20:23;;;;;;;16.50;5.72;;;27.20;40.40;;;;;;6245145;28;20037;-73
2023/07/03 07:23:24;;;;;;;16.70;5.30;;;27.30;40.20;;;;;;6245613;28;20033;-73
2023/07/03 07:26:32;;;;;;;12.77;5.57;;;27.40;40.30;;;;;;6261142;28;20045;-73
2023/07/03 07:29:34;;;;;;;13.30;5.20;;;27.30;40.30;;;;;;6248378;28;20500;-71
2023/07/03 07:32:36;;;;;;;10.32;4.80;;;27.30;40.50;;;;;;6243311;28;20388;-72
2023/07/03 07:35:37;;;;;;;14.63;5.93;;;27.20;40.60;;;;;;6243604;28;20132;-74
2023/07/03 07:38:38;;;;;;;12.45;5.65;;;27.20;40.70;;;;;;6245235;28;20494;-73
2023/07/03 07:41:39;;;;;;;16.35;5.95;;;27.20;40.80;;;;;;6243943;28;20098;-74
2023/07/03 07:44:40;;;;;;;12.10;5.45;;;27.10;40.80;;;;;;6243860;28;20128;-72
2023/07/03 07:47:41;;;;;;;15.68;5.60;;;27.10;40.90;;;;;;6244546;28;20025;-72
2023/07/03 07:50:42;;;;;;;13.90;5.25;;;27.20;40.80;;;;;;6245155;28;20057;-71
2023/07/03 07:53:43;;;;;;;13.13;5.47;;;27.20;40.80;;;;;;6259223;28;20033;-73
2023/07/03 07:56:43;;;;;;;14.45;5.35;;;27.30;40.60;;;;;;6259509;28;20045;-73
2023/07/03 07:59:44;;;;;;;11.13;5.40;;;27.50;40.70;;;;;;6242536;28;20442;-73
2023/07/03 08:02:45;;;;;;;14.10;5.07;;;27.30;40.50;;;;;;6243662;28;20034;-73
2023/07/03 08:05:46;;;;;;;17.38;5.53;;;27.30;40.60;;;;;;6242632;28;20037;-72
2023/07/03 08:08:47;;;;;;;11.70;5.65;;;27.20;40.60;;;;;;6242327;28;20041;-73
2023/07/03 08:11:48;;;;;;;9.18;4.95;;;27.30;40.60;;;;;;6258712;28;20045;-72
2023/07/03 08:14:49;;;;;;;14.77;5.50;;;27.30;40.60;;;;;;6258875;28;20505;-74
2023/07/03 08:17:50;;;;;;;8.00;4.60;;;27.30;40.60;;;;;;6245190;28;20146;-75
2023/07/03 08:20:51;;;;;;;11.00;4.88;;;27.20;40.60;;;;;;6260186;28;20077;-73
2023/07/03 08:23:52;;;;;;;17.17;5.85;;;27.20;40.60;;;;;;6258624;28;20135;-72
2023/07/03 08:26:54;;;;;;;15.10;5.45;;;27.10;40.70;;;;;;6243544;28;20025;-73
2023/07/03 08:29:56;;;;;;;12.27;5.53;;;27.00;40.80;;;;;;6243719;28;20184;-73
2023/07/03 08:32:57;;;;;;;15.00;5.57;;;27.00;40.70;;;;;;6242841;28;20087;-73
2023/07/03 08:35:59;;;;;;;15.85;5.93;;;27.10;40.70;;;;;;6225375;28;20046;-73
2023/07/03 08:39:02;;;;;;;16.88;5.95;;;27.10;40.60;;;;;;6258942;28;20037;-73
2023/07/03 08:42:11;;;;;;;13.02;5.30;;;27.20;40.50;;;;;;6242614;28;20033;-72
2023/07/03 08:45:15;;;;;;;14.13;5.63;;;27.20;40.50;;;;;;6241263;28;20038;-73
2023/07/03 08:48:27;;;;;;;11.70;5.40;;;27.30;40.50;;;;;;6241586;28;20033;-73
2023/07/03 08:51:32;;;;;;;15.07;5.40;;;27.30;40.40;;;;;;6243065;28;20034;-73
2023/07/03 08:54:37;;;;;;;19.27;6.10;;;27.30;40.30;;;;;;6258577;28;20132;-72
2023/07/03 08:57:38;;;;;;;12.57;5.05;;;27.30;40.10;;;;;;6241981;28;20061;-72
2023/07/03 09:01:11;;;;;;;16.35;5.72;;;27.30;40.10;;;;;;6241790;28;20038;-72
2023/07/03 09:04:24;;;;;;;10.50;5.10;;;27.30;40.10;;;;;;6196403;28;20538;-72
2023/07/03 09:07:47;;;;;;;15.70;5.55;;;27.40;40.00;;;;;;6187029;28;20506;-73
2023/07/03 09:10:49;;;;;;;20.58;5.85;;;27.50;39.90;;;;;;6186313;28;20049;-74
2023/07/03 09:13:53;;;;;;;12.13;4.75;;;27.50;39.80;;;;;;6185910;28;20042;-73
2023/07/03 09:16:55;;;;;;;10.27;4.90;;;27.60;39.70;;;;;;6183621;28;20058;-73
2023/07/03 09:19:57;;;;;;;16.52;5.93;;;27.60;39.40;;;;;;6180739;28;20510;-72
2023/07/03 09:23:11;;;;;;;16.60;5.13;;;27.50;39.30;;;;;;6174785;28;20108;-73
2023/07/03 09:26:39;;;;;;;13.50;5.15;;;27.40;39.50;;;;;;6190175;28;20407;-73
2023/07/03 09:29:41;;;;;;;13.70;5.10;;;27.20;39.50;;;;;;6188949;28;20038;-73
2023/07/03 09:32:42;;;;;;;13.00;5.03;;;27.10;39.70;;;;;;6189246;28;20034;-74
2023/07/03 09:35:43;;;;;;;12.80;4.65;;;27.00;39.70;;;;;;6167315;28;20132;-71
2023/07/03 09:38:44;;;;;;;12.18;4.78;;;26.90;40.40;;;;;;6172700;28;20522;-72
2023/07/03 09:41:45;;;;;;;15.15;5.10;;;26.90;39.90;;;;;;6227563;28;20044;-72
2023/07/03 09:44:46;;;;;;;14.18;4.82;;;26.90;39.80;;;;;;6239820;28;20025;-72
2023/07/03 09:47:57;;;;;;;10.88;4.22;;;26.90;39.60;;;;;;6256848;28;20032;-74
2023/07/03 09:50:58;;;;;;;9.13;4.50;;;26.90;39.60;;;;;;6256933;28;20036;-73
2023/07/03 09:54:07;;;;;;;9.93;4.60;;;26.90;39.50;;;;;;6256920;28;20033;-74
2023/07/03 09:57:25;;;;;;;14.30;4.43;;;26.90;39.50;;;;;;6240734;28;20127;-73
2023/07/03 10:00:26;;;;;;;11.43;4.47;;;26.90;39.20;;;;;;6242018;28;20064;-73
2023/07/03 10:03:32;;;;;;;11.52;4.82;;;26.90;39.00;;;;;;6240438;28;20769;-72
2023/07/03 10:06:34;;;;;;;9.23;4.30;;;26.90;38.90;;;;;;6241738;28;20498;-72
2023/07/03 10:09:38;;;;;;;10.32;4.45;;;27.00;38.60;;;;;;6239589;28;20022;-74
2023/07/03 10:13:20;;;;;;;9.38;4.40;;;27.10;38.40;;;;;;6241295;28;20057;-72
2023/07/03 10:16:23;;;;;;;8.98;3.45;;;27.10;37.90;;;;;;6240254;28;20036;-72
2023/07/03 10:19:24;;;;;;;12.30;3.95;;;27.20;37.30;;;;;;6241668;28;20032;-72
2023/07/03 10:22:26;;;;;;;10.68;3.92;;;27.30;37.00;;;;;;6241255;28;20033;-72
2023/07/03 10:25:33;;;;;;;8.70;3.90;;;27.30;36.70;;;;;;6239724;28;20114;-74
2023/07/03 10:28:41;;;;;;;8.63;3.80;;;27.30;36.60;;;;;;6240528;28;20089;-73
2023/07/03 10:32:01;;;;;;;12.10;4.43;;;27.30;36.70;;;;;;6242368;28;20394;-72
2023/07/03 10:35:04;;;;;;;10.73;3.85;;;27.40;36.50;;;;;;6256828;28;20087;-73
2023/07/03 10:38:27;;;;;;;7.60;3.50;;;27.40;36.40;;;;;;6255840;28;20078;-73
2023/07/03 10:41:49;;;;;;;7.32;3.88;;;27.40;36.60;;;;;;6241803;28;20040;-72
2023/07/03 10:44:56;;;;;;;9.23;3.38;;;27.50;36.60;;;;;;6242095;28;20073;-72
2023/07/03 10:48:19;;;;;;;7.88;3.53;;;27.60;36.40;;;;;;6240175;28;20053;-74
2023/07/03 10:51:50;;;;;;;10.45;3.20;;;27.50;36.40;;;;;;6240803;28;20033;-72
2023/07/03 10:54:53;;;;;;;9.02;4.55;;;27.60;36.40;;;;;;6243056;28;20107;-74
2023/07/03 10:58:06;;;;;;;11.98;4.07;;;27.60;36.60;;;;;;6244212;28;20040;-72
2023/07/03 11:01:28;;;;;;;8.23;3.28;;;27.70;36.80;;;;;;6240304;28;20127;-73
2023/07/03 11:05:03;;;;;;;10.82;4.15;;;27.70;36.80;;;;;;6252802;28;20036;-73
2023/07/03 11:08:22;;;;;;;7.20;3.40;;;27.80;36.80;;;;;;6239762;28;20513;-73
2023/07/03 11:11:31;;;;;;;6.43;3.63;;;28.20;36.40;;;;;;6238937;28;20040;-73
2023/07/03 11:14:43;;;;;;;8.65;3.78;;;28.90;35.20;;;;;;6241067;28;20037;-74
2023/07/03 11:17:46;;;;;;;9.45;3.95;;;29.60;34.10;;;;;;6239937;28;20579;-73
2023/07/03 11:21:20;;;;;;;9.68;3.80;;;30.20;32.90;;;;;;6239027;28;20470;-73
2023/07/03 11:24:35;;;;;;;14.77;3.65;;;30.60;32.20;;;;;;6239033;28;20034;-71
2023/07/03 11:28:12;;;;;;;10.15;3.35;;;31.10;31.50;;;;;;6240384;28;20061;-73
2023/07/03 11:31:16;;;;;;;6.57;3.20;;;31.50;30.90;;;;;;6233132;28;20056;-74
2023/07/03 11:34:20;;;;;;;6.30;3.40;;;31.60;30.50;;;;;;6240096;28;20052;-72
2023/07/03 11:37:39;;;;;;;9.00;3.25;;;31.50;30.60;;;;;;6250871;28;20450;-73
2023/07/03 11:40:55;;;;;;;8.85;3.28;;;31.50;30.60;;;;;;6244830;28;20029;-72
2023/07/03 11:44:14;;;;;;;9.60;3.50;;;31.70;30.10;;;;;;6241210;28;20017;-72
2023/07/03 11:47:25;;;;;;;7.00;2.70;;;31.70;30.10;;;;;;6241717;28;20381;-72
2023/07/03 11:50:32;;;;;;;7.05;3.40;;;31.60;30.20;;;;;;6234812;28;20034;-75
2023/07/03 11:53:34;;;;;;;7.90;2.97;;;31.80;30.20;;;;;;6243211;28;20030;-75
2023/07/03 11:56:44;;;;;;;9.55;3.72;;;32.00;30.30;;;;;;6237889;28;20025;-73
2023/07/03 11:59:46;;;;;;;10.57;3.90;;;32.10;30.00;;;;;;6259983;28;20037;-74
2023/07/03 12:02:59;;;;;;;21.25;11.02;;;32.20;29.80;;;;;;6259979;28;20356;-73
2023/07/03 12:06:00;;;;;;;21.63;10.82;;;32.40;29.80;;;;;;6243120;28;20116;-72
2023/07/03 12:09:24;;;;;;;11.85;6.10;;;32.40;29.50;;;;;;6244478;28;20462;-74
2023/07/03 12:12:27;;;;;;;8.27;3.10;;;32.40;29.40;;;;;;6242699;28;20351;-75
2023/07/03 12:15:28;;;;;;;7.88;3.25;;;32.60;29.30;;;;;;6244844;28;20101;-74
2023/07/03 12:18:29;;;;;;;11.35;3.53;;;32.80;29.20;;;;;;6243311;28;20052;-74
2023/07/03 12:21:49;;;;;;;6.60;3.40;;;32.90;29.00;;;;;;6244600;28;20076;-74
2023/07/03 12:25:06;;;;;;;10.68;2.90;;;32.90;28.90;;;;;;6226977;28;20452;-75
2023/07/03 12:28:13;;;;;;;9.30;3.67;;;33.20;28.50;;;;;;6245129;28;20033;-74
2023/07/03 12:31:22;;;;;;;6.55;3.00;;;33.40;28.10;;;;;;6245337;28;20053;-74
2023/07/03 12:34:25;;;;;;;5.15;3.05;;;33.50;28.40;;;;;;6228076;28;20029;-75
2023/07/03 12:37:29;;;;;;;7.32;3.70;;;33.50;27.80;;;;;;6260236;28;20350;-75
2023/07/03 12:40:33;;;;;;;6.85;3.08;;;33.40;27.80;;;;;;6246326;28;20029;-78
2023/07/03 12:43:34;;;;;;;7.72;3.35;;;33.30;27.90;;;;;;6227965;28;20025;-75
2023/07/03 12:46:38;;;;;;;5.50;2.83;;;33.40;27.70;;;;;;6244330;28;20037;-73
2023/07/03 12:49:55;;;;;;;9.95;3.53;;;33.30;27.60;;;;;;6243011;28;20107;-74
2023/07/03 12:53:00;;;;;;;8.77;3.10;;;33.10;27.90;;;;;;6258993;28;20064;-74
2023/07/03 12:56:06;;;;;;;9.02;2.97;;;33.20;27.90;;;;;;6244283;28;20100;-75
2023/07/03 12:59:09;;;;;;;8.65;3.25;;;33.30;27.60;;;;;;6259286;28;20062;-71
2023/07/03 13:02:09;;;;;;;8.65;3.55;;;33.40;27.60;;;;;;6259045;28;20034;-74
2023/07/03 13:05:13;;;;;;;7.70;3.55;;;33.60;27.40;;;;;;6241761;28;20465;-76
2023/07/03 13:08:15;;;;;;;9.50;3.33;;;33.80;27.40;;;;;;6258279;28;20382;-73
2023/07/03 13:11:55;;;;;;;10.50;3.22;;;34.00;27.10;;;;;;6223952;28;20033;-72
2023/07/03 13:15:06;;;;;;;7.47;3.28;;;33.90;27.20;;;;;;6238572;28;20642;-74
2023/07/03 13:18:13;;;;;;;9.45;4.07;;;34.00;27.20;;;;;;6244590;28;20685;-73
2023/07/03 13:21:19;;;;;;;9.55;3.30;;;34.20;27.10;;;;;;6251014;28;20037;-73
2023/07/03 13:24:22;;;;;;;6.88;2.83;;;34.50;26.80;;;;;;6265203;28;20017;-75
2023/07/03 13:27:26;;;;;;;12.00;2.95;;;34.80;26.70;;;;;;6247585;28;20504;-74
2023/07/03 13:30:34;;;;;;;5.90;3.45;;;35.30;26.20;;;;;;6244997;28;20083;-73
2023/07/03 13:33:35;;;;;;;8.98;2.97;;;35.50;25.90;;;;;;6256776;28;20033;-74
2023/07/03 13:37:06;;;;;;;7.70;3.22;;;35.60;25.70;;;;;;6233038;28;20031;-73
2023/07/03 13:40:07;;;;;;;3.95;2.70;;;35.90;25.80;;;;;;6238804;28;20494;-74
2023/07/03 13:43:08;;;;;;;7.03;2.72;;;36.20;25.20;;;;;;6241707;28;20057;-73
2023/07/03 13:46:09;;;;;;;6.45;2.83;;;36.30;25.00;;;;;;6242227;28;20029;-75
2023/07/03 13:49:16;;;;;;;6.05;2.83;;;36.30;25.40;;;;;;6257909;28;20134;-73
2023/07/03 13:52:16;;;;;;;5.35;2.42;;;36.40;24.70;;;;;;6243936;28;20079;-73
2023/07/03 13:55:17;;;;;;;6.22;2.67;;;36.60;24.60;;;;;;6257847;28;20033;-75
2023/07/03 13:58:18;;;;;;;9.27;2.72;;;36.70;24.40;;;;;;6258260;28;20025;-75
2023/07/03 14:01:20;;;;;;;8.35;3.08;;;36.90;24.40;;;;;;6257840;28;20103;-75
2023/07/03 14:04:21;;;;;;;8.18;2.90;;;37.10;24.10;;;;;;6242968;28;20124;-76
2023/07/03 14:07:22;;;;;;;7.63;2.88;;;37.00;24.10;;;;;;6257864;28;20041;-74
2023/07/03 14:10:23;;;;;;;6.47;3.15;;;37.40;24.10;;;;;;6240933;28;20041;-77
2023/07/03 14:13:24;;;;;;;8.70;2.75;;;37.80;23.60;;;;;;6257097;28;20112;-74
2023/07/03 14:16:27;;;;;;;7.55;2.58;;;38.10;23.30;;;;;;6241967;28;20029;-74
2023/07/03 14:19:28;;;;;;;7.05;3.13;;;38.10;23.10;;;;;;6240383;28;20037;-76
2023/07/03 14:22:29;;;;;;;13.30;3.15;;;38.20;23.10;;;;;;6257273;28;20048;-73
2023/07/03 14:25:30;;;;;;;5.97;3.00;;;38.30;23.00;;;;;;6243631;28;20029;-73
2023/07/03 14:28:31;;;;;;;8.60;3.03;;;38.30;22.80;;;;;;6242333;28;20021;-74
2023/07/03 14:31:32;;;;;;;5.32;2.70;;;38.30;23.00;;;;;;6240681;28;20060;-72
2023/07/03 14:34:33;;;;;;;5.50;2.95;;;38.50;22.80;;;;;;6256890;28;20049;-74
2023/07/03 14:37:36;;;;;;;4.47;2.80;;;38.60;22.70;;;;;;6247342;28;20033;-75
2023/07/03 14:40:37;;;;;;;7.35;2.67;;;38.90;22.60;;;;;;6239447;28;20036;-73
2023/07/03 14:43:38;;;;;;;5.28;3.35;;;38.90;22.30;;;;;;6240728;28;20038;-73
2023/07/03 14:46:40;;;;;;;8.70;3.10;;;38.80;22.30;;;;;;6255740;28;20053;-73
2023/07/03 14:49:42;;;;;;;8.68;2.75;;;38.70;22.40;;;;;;6239005;28;20648;-73
2023/07/03 14:52:46;;;;;;;6.13;2.67;;;38.40;22.40;;;;;;6255391;28;20473;-72
2023/07/03 14:55:55;;;;;;;5.45;2.90;;;38.30;22.60;;;;;;6240476;28;20037;-72
2023/07/03 14:58:59;;;;;;;8.23;2.75;;;37.90;23.00;;;;;;6240842;28;20372;-72
2023/07/03 15:02:00;;;;;;;7.32;2.60;;;37.80;23.20;;;;;;6238063;28;20049;-73
2023/07/03 15:05:01;;;;;;;7.18;2.88;;;37.70;23.80;;;;;;6240734;28;20102;-74
2023/07/03 15:08:01;;;;;;;4.47;2.80;;;37.80;23.20;;;;;;6239923;28;20025;-72
2023/07/03 15:11:17;;;;;;;5.22;3.05;;;37.80;23.20;;;;;;6241011;28;20029;-74
2023/07/03 15:14:18;;;;;;;7.95;3.05;;;37.60;23.30;;;;;;6243181;28;20041;-74
2023/07/03 15:17:19;;;;;;;6.75;3.10;;;37.60;23.90;;;;;;6242109;28;20048;-73
2023/07/03 15:20:20;;;;;;;6.78;2.90;;;37.60;23.40;;;;;;6241018;28;20029;-73
2023/07/03 15:23:24;;;;;;;10.98;3.25;;;37.60;23.40;;;;;;6241668;28;20378;-72
2023/07/03 15:26:30;;;;;;;4.10;2.30;;;37.60;23.40;;;;;;6240308;28;20518;-75
2023/07/03 15:29:38;;;;;;;7.20;2.55;;;37.70;23.40;;;;;;6239499;28;20299;-73
2023/07/03 15:32:39;;;;;;;6.15;3.00;;;37.80;23.20;;;;;;6239468;28;20123;-72
2023/07/03 15:35:39;;;;;;;6.78;2.70;;;37.70;23.20;;;;;;6245553;28;20044;-73
2023/07/03 15:38:40;;;;;;;7.05;2.58;;;37.50;23.40;;;;;;6246474;28;20045;-74
2023/07/03 15:41:41;;;;;;;6.88;3.05;;;37.50;23.50;;;;;;6244616;28;20508;-74
2023/07/03 15:44:42;;;;;;;6.72;2.45;;;37.50;23.50;;;;;;6251253;28;20040;-74
2023/07/03 15:47:44;;;;;;;7.53;3.00;;;37.40;23.70;;;;;;6231652;28;20026;-76
2023/07/03 15:50:58;;;;;;;7.72;2.90;;;37.20;23.90;;;;;;6232792;28;20034;-73
2023/07/03 15:54:00;;;;;;;5.97;2.95;;;37.10;24.00;;;;;;6242378;28;20116;-73